CDT,Max TemperatureF,Mean TemperatureF,Min TemperatureF,Max Dew PointF,MeanDew PointF,Min DewpointF,Max Humidity, Mean Humidity, Min Humidity, Max Sea Level PressureIn, Mean Sea Level PressureIn, Min Sea Level PressureIn, Max VisibilityMiles, Mean VisibilityMiles, Min VisibilityMiles, Max Wind SpeedMPH, Mean Wind SpeedMPH, Max Gust SpeedMPH,PrecipitationIn, CloudCover, Events, WindDirDegrees
2013-4-1,78,60,42,50,45,39,91,64,33,30.08,30.01,29.94,10,10,9,26,9,34,0.02,2,Rain,71
2013-4-2,43,40,37,41,38,34,100,95,76,30.15,30.10,30.04,10,7,2,24,20,32,0.00,8,Rain,29
2013-4-3,41,39,37,40,38,37,100,99,93,30.24,30.17,30.11,10,9,2,17,14,22,0.19,8,Rain-Snow-Thunderstorm,16
2013-4-4,48,42,34,40,37,34,100,93,71,30.27,30.21,30.18,10,9,3,13,9,,0.02,7,Rain,359
2013-4-5,66,48,30,48,40,30,100,80,49,30.24,30.12,29.88,10,8,2,21,6,,0.00,1,,165
2013-4-6,76,62,48,55,49,47,97,66,39,29.87,29.82,29.79,10,10,10,16,10,,0.00,1,Rain,102
2013-4-7,83,68,53,62,58,51,100,83,47,29.80,29.70,29.57,10,9,7,21,11,26,0.00,0,,114
2013-4-8,88,74,61,64,63,61,100,79,42,29.60,29.54,29.46,10,10,10,28,16,36,0.01,1,,142
2013-4-9,82,58,33,64,47,28,100,78,44,29.99,29.72,29.52,10,9,2,33,20,40,0.35,7,Rain-Hail-Thunderstorm,17
2013-4-10,47,38,28,32,29,25,100,82,44,30.11,29.99,29.84,10,7,2,38,22,47,0.61,6,Rain-Thunderstorm,339
2013-4-11,60,46,31,40,29,22,87,60,33,30.04,29.90,29.77,10,10,10,16,8,20,0.00,0,,282
2013-4-12,67,52,37,48,40,36,94,68,39,30.03,29.93,29.87,10,10,8,18,7,,0.00,2,,52
2013-4-13,75,61,47,50,44,42,83,58,30,29.93,29.82,29.67,10,10,10,18,13,24,0.00,0,,126
2013-4-14,90,70,52,57,48,36,92,51,15,29.66,29.50,29.40,10,9,2,23,13,33,0.00,0,,162
2013-4-15,77,66,54,54,45,36,67,51,40,29.74,29.65,29.52,10,10,10,28,19,34,0.00,0,Rain,40
2013-4-16,57,52,48,50,46,40,100,81,64,29.94,29.85,29.69,10,9,2,23,18,30,0.00,6,,29
2013-4-17,79,62,46,72,60,46,100,96,74,29.83,29.68,29.50,10,5,2,26,11,38,0.35,6,Rain-Thunderstorm,47
2013-4-18,53,44,37,43,34,24,100,72,36,30.21,29.94,29.75,10,10,5,39,26,47,0.10,5,Rain,335
2013-4-19,68,48,29,38,27,21,81,47,17,30.29,30.17,30.06,10,10,10,14,9,22,0.00,0,,263
2013-4-20,72,54,37,37,33,29,88,48,22,30.09,30.00,29.88,10,10,10,29,13,37,0.00,0,,142
2013-4-21,72,58,46,51,46,35,83,59,43,30.10,30.04,29.99,10,10,10,18,12,25,0.00,0,Rain,143
2013-4-22,84,66,50,58,54,48,90,69,39,30.03,29.86,29.66,10,10,10,24,16,31,0.00,3,,143
2013-4-23,62,50,35,57,34,25,87,76,62,30.33,30.07,29.76,10,10,10,31,23,41,0.01,7,Rain,1
2013-4-24,58,42,27,34,28,25,92,64,31,30.37,30.33,30.25,10,10,10,14,10,,0.00,1,,346
2013-4-25,70,50,32,41,33,28,84,37,21,30.34,30.19,30.08,10,10,10,21,9,23,0.00,5,,124
2013-4-26,82,70,57,63,50,41,88,64,43,30.09,30.02,29.83,10,10,9,25,15,31,0.00,6,Rain-Thunderstorm,133
2013-4-27,78,66,52,56,51,43,97,73,29,30.17,30.07,29.99,10,10,10,18,13,26,0.00,3,,14
2013-4-28,89,68,46,61,46,40,100,52,18,30.02,29.89,29.74,10,8,2,17,7,24,0.00,0,,148
2013-4-29,92,72,53,62,49,35,100,52,13,29.82,29.74,29.65,10,10,10,25,12,31,0.00,0,,159
2013-4-30,91,75,59,61,58,52,97,58,26,29.74,29.68,29.62,10,10,10,24,16,34,0.00,0,,144